KRYY

Cobb County International-McCollum Field Airport

Atlanta, Georgia, USA
METAR KRYY 231057Z 00000KT 2SM -RA BR BKN004 OVC010 21/20 A3009 RMK AO2 P0000
Observed Flight Rules
May-23 @ 10:57 UTC (6 minutes ago) Instrument Flight Rules
Visibility Clouds Conditions
2 miles
  • Broken at 400' AGL
  • Overcast at 1,000' AGL
  • Light Rain
  • Mist
Temperatures Readings Precipitation
Current 21°C / 70°F
Dewpoint 20°C / 68°F
Humidity 94%
Altimeter 30.09" Hg
Pressure 1019 hPa
Elevation 317
Current Rain 0.005
METAR KRYY 231057Z 00000KT 2SM -RA BR BKN004 OVC010 21/20 A3009 RMK AO2 P0000
Observed Flight Rules
May-23 @ 10:57 UTC
(6 minutes ago)
LIFR
Clouds
  • Broken at 400' AGL
  • Overcast at 1,000' AGL
Conditions
  • Light Rain
  • Mist
Temperature Dewpoint
21°C / 70°F 20°C / 68°F
Humidity Altimeter Pressure
94% 30.09" Hg 1019 hPa
Current Rain
0.005